createdAt,value
2023-05-21T00:01:06.502Z,15.90
2023-05-21T00:04:09.813Z,15.90
2023-05-21T00:07:15.390Z,15.80
2023-05-21T00:10:20.128Z,15.80
2023-05-21T00:13:23.275Z,15.80
2023-05-21T00:16:27.192Z,15.70
2023-05-21T00:19:32.777Z,15.70
2023-05-21T00:22:36.348Z,15.60
2023-05-21T00:25:40.862Z,15.60
2023-05-21T00:28:44.074Z,15.70
2023-05-21T00:31:47.260Z,15.80
2023-05-21T00:34:50.483Z,15.70
2023-05-21T00:37:53.991Z,15.70
2023-05-21T00:40:58.473Z,15.60
2023-05-21T00:44:01.560Z,15.60
2023-05-21T00:47:06.565Z,15.60
2023-05-21T00:50:10.571Z,15.60
2023-05-21T00:53:15.444Z,15.60
2023-05-21T00:56:21.447Z,15.60
2023-05-21T00:59:25.423Z,15.50
2023-05-21T01:02:28.698Z,15.50
2023-05-21T01:05:32.475Z,15.50
2023-05-21T01:08:37.654Z,15.40
2023-05-21T01:11:44.958Z,15.40
2023-05-21T01:14:49.053Z,15.40
2023-05-21T01:17:53.161Z,15.30
2023-05-21T01:20:56.371Z,15.40
2023-05-21T01:24:02.209Z,15.40
2023-05-21T01:27:07.650Z,15.40
2023-05-21T01:30:12.124Z,15.40
2023-05-21T01:33:20.904Z,15.40
2023-05-21T01:36:27.259Z,15.30
2023-05-21T01:39:39.128Z,15.30
2023-05-21T01:42:45.527Z,15.30
2023-05-21T01:45:49.791Z,15.30
2023-05-21T01:48:56.056Z,15.30
2023-05-21T01:51:59.408Z,15.20
2023-05-21T01:55:04.629Z,15.20
2023-05-21T01:58:08.204Z,15.20
2023-05-21T02:01:12.012Z,15.20
2023-05-21T02:04:15.175Z,15.20
2023-05-21T02:07:18.374Z,15.20
2023-05-21T02:10:23.210Z,15.10
2023-05-21T02:13:26.969Z,15.00
2023-05-21T02:16:30.276Z,15.00
2023-05-21T02:19:33.540Z,15.00
2023-05-21T02:22:39.692Z,15.00
2023-05-21T02:25:46.333Z,15.00
2023-05-21T02:28:49.433Z,14.90
2023-05-21T02:31:52.731Z,14.90
2023-05-21T02:34:55.894Z,14.90
2023-05-21T02:37:59.418Z,14.90
2023-05-21T02:41:04.056Z,14.80
2023-05-21T02:44:07.244Z,14.80
2023-05-21T02:47:12.544Z,14.80
2023-05-21T02:50:16.138Z,14.70
2023-05-21T02:53:19.324Z,14.70
2023-05-21T02:56:24.863Z,14.70
2023-05-21T02:59:27.930Z,14.70
2023-05-21T03:02:31.336Z,14.60
2023-05-21T03:05:34.958Z,14.60
2023-05-21T03:08:38.678Z,14.60
2023-05-21T03:11:44.554Z,14.70
2023-05-21T03:14:48.069Z,14.70
2023-05-21T03:17:51.292Z,14.70
2023-05-21T03:20:59.000Z,14.70
2023-05-21T03:24:02.838Z,14.70
2023-05-21T03:27:08.163Z,14.70
2023-05-21T03:30:12.152Z,14.70
2023-05-21T03:33:15.574Z,14.80
2023-05-21T03:36:18.623Z,14.70
2023-05-21T03:39:22.094Z,14.70
2023-05-21T03:42:26.558Z,14.70
2023-05-21T03:45:29.828Z,14.80
2023-05-21T03:48:33.007Z,14.80
2023-05-21T03:51:36.205Z,14.80
2023-05-21T03:54:40.603Z,14.80
2023-05-21T03:57:45.192Z,14.90
2023-05-21T04:00:48.610Z,14.90
2023-05-21T04:03:51.877Z,14.90
2023-05-21T04:06:55.353Z,14.90
2023-05-21T04:10:02.047Z,15.00
2023-05-21T04:13:06.842Z,15.00
2023-05-21T04:16:10.022Z,15.00
2023-05-21T04:19:13.170Z,15.10
2023-05-21T04:22:16.358Z,15.20
2023-05-21T04:25:20.385Z,15.20
2023-05-21T04:28:28.743Z,15.30
2023-05-21T04:31:32.677Z,15.40
2023-05-21T04:34:36.166Z,15.40
2023-05-21T04:37:42.080Z,15.50
2023-05-21T04:40:45.237Z,15.60
2023-05-21T04:43:49.668Z,15.70
2023-05-21T04:46:53.000Z,15.80
2023-05-21T04:49:56.215Z,16.00
2023-05-21T04:52:59.965Z,16.10
2023-05-21T04:56:03.904Z,16.20
2023-05-21T04:59:08.415Z,16.40
2023-05-21T05:02:11.490Z,16.60
2023-05-21T05:05:14.607Z,16.80
2023-05-21T05:08:17.621Z,17.00
2023-05-21T05:11:20.816Z,17.10
2023-05-21T05:14:25.332Z,17.20
2023-05-21T05:17:28.428Z,17.40
2023-05-21T05:20:31.623Z,17.50
2023-05-21T05:23:34.748Z,17.60
2023-05-21T05:26:37.820Z,17.80
2023-05-21T05:29:42.273Z,18.00
2023-05-21T05:32:45.683Z,18.10
2023-05-21T05:35:49.138Z,18.20
2023-05-21T05:38:52.524Z,18.40
2023-05-21T05:41:55.786Z,18.40
2023-05-21T05:45:00.561Z,18.50
2023-05-21T05:48:03.893Z,18.60
2023-05-21T05:51:07.172Z,18.80
2023-05-21T05:54:10.463Z,18.80
2023-05-21T05:57:13.644Z,19.00
2023-05-21T06:00:18.675Z,19.10
2023-05-21T06:03:21.782Z,19.10
2023-05-21T06:06:24.906Z,19.20
2023-05-21T06:09:27.918Z,19.30
2023-05-21T06:12:31.016Z,19.50
2023-05-21T06:15:35.540Z,19.50
2023-05-21T06:18:38.833Z,19.60
2023-05-21T06:21:41.957Z,19.50
2023-05-21T06:24:44.961Z,19.50
2023-05-21T06:27:48.086Z,19.60
2023-05-21T06:30:53.926Z,19.70
2023-05-21T06:33:57.401Z,19.50
2023-05-21T06:37:00.731Z,19.40
2023-05-21T06:40:04.883Z,19.40
2023-05-21T06:43:07.971Z,19.40
2023-05-21T06:46:12.414Z,19.50
2023-05-21T06:49:15.570Z,19.60
2023-05-21T06:52:19.036Z,19.70
2023-05-21T06:55:22.468Z,19.70
2023-05-21T06:58:25.550Z,19.80
2023-05-21T07:01:30.666Z,19.90
2023-05-21T07:04:35.254Z,19.80
2023-05-21T07:07:38.328Z,19.90
2023-05-21T07:10:42.375Z,20.00
2023-05-21T07:13:48.494Z,20.10
2023-05-21T07:17:01.478Z,20.30
2023-05-21T07:20:07.705Z,20.50
2023-05-21T07:23:10.724Z,20.60
2023-05-21T07:26:13.821Z,20.80
2023-05-21T07:29:17.216Z,21.10
2023-05-21T07:32:22.796Z,21.30
2023-05-21T07:35:25.916Z,21.50
2023-05-21T07:38:28.981Z,21.50
2023-05-21T07:41:32.687Z,21.70
2023-05-21T07:44:35.756Z,21.70
2023-05-21T07:47:40.238Z,21.80
2023-05-21T07:50:43.350Z,21.90
2023-05-21T07:53:46.390Z,21.90
2023-05-21T07:56:49.900Z,22.10
2023-05-21T07:59:53.119Z,22.00
2023-05-21T08:02:57.587Z,22.00
2023-05-21T08:06:00.862Z,22.00
2023-05-21T08:09:04.749Z,22.20
2023-05-21T08:12:08.619Z,22.50
2023-05-21T08:15:13.077Z,22.60
2023-05-21T08:18:18.478Z,22.70
2023-05-21T08:21:21.704Z,22.80
2023-05-21T08:24:26.331Z,22.70
2023-05-21T08:27:29.724Z,22.90
2023-05-21T08:30:32.940Z,23.00
2023-05-21T08:33:38.333Z,23.10
2023-05-21T08:36:43.271Z,23.20
2023-05-21T08:39:46.382Z,23.20
2023-05-21T08:42:51.147Z,23.30
2023-05-21T08:45:55.942Z,23.50
2023-05-21T08:49:00.503Z,23.70
2023-05-21T08:52:04.112Z,24.00
2023-05-21T08:55:08.965Z,24.20
2023-05-21T08:58:12.104Z,24.40
2023-05-21T09:01:18.739Z,24.50
2023-05-21T09:04:24.465Z,24.70
2023-05-21T09:07:29.182Z,24.70
2023-05-21T09:10:37.345Z,24.80
2023-05-21T09:13:41.867Z,24.80
2023-05-21T09:16:48.188Z,24.80
2023-05-21T09:20:13.446Z,25.00
2023-05-21T09:23:18.918Z,25.00
2023-05-21T09:26:23.120Z,24.60
2023-05-21T09:29:27.384Z,24.50
2023-05-21T09:32:30.537Z,24.60
2023-05-21T09:35:36.238Z,24.70
2023-05-21T09:38:40.909Z,24.80
2023-05-21T09:41:44.042Z,25.00
2023-05-21T09:44:48.281Z,25.00
2023-05-21T09:47:53.038Z,25.20
2023-05-21T09:51:12.058Z,25.20
2023-05-21T09:54:15.388Z,25.40
2023-05-21T09:57:23.984Z,25.60
2023-05-21T10:00:29.630Z,25.60
2023-05-21T10:03:35.075Z,25.60
2023-05-21T10:06:44.451Z,25.50
2023-05-21T10:09:49.713Z,25.50
2023-05-21T10:12:56.443Z,25.50
2023-05-21T10:16:03.646Z,25.40
2023-05-21T10:19:10.891Z,25.40
2023-05-21T10:22:16.788Z,25.50
2023-05-21T10:25:21.312Z,25.60
2023-05-21T10:28:25.066Z,25.60
2023-05-21T10:31:29.751Z,25.80
2023-05-21T10:34:33.349Z,25.80
2023-05-21T10:37:38.599Z,25.80
2023-05-21T10:40:41.793Z,25.80
2023-05-21T10:43:52.741Z,26.00
2023-05-21T10:47:35.655Z,26.20
2023-05-21T10:51:20.356Z,26.40
2023-05-21T10:54:49.879Z,26.40
2023-05-21T10:58:13.370Z,26.50
2023-05-21T11:01:19.252Z,26.70
2023-05-21T11:04:28.096Z,26.70
2023-05-21T11:07:53.662Z,26.80
2023-05-21T11:10:59.696Z,27.00
2023-05-21T11:14:02.680Z,27.10
2023-05-21T11:17:12.141Z,27.10
2023-05-21T11:20:15.311Z,27.10
2023-05-21T11:23:18.405Z,26.60
2023-05-21T11:26:24.356Z,26.70
2023-05-21T11:29:33.990Z,26.80
2023-05-21T11:32:40.906Z,27.00
2023-05-21T11:35:59.450Z,27.20
2023-05-21T11:39:15.320Z,27.30
2023-05-21T11:42:30.249Z,27.30
2023-05-21T11:45:34.255Z,27.40
2023-05-21T11:48:39.033Z,27.40
2023-05-21T11:51:42.326Z,27.40
2023-05-21T11:54:48.625Z,27.50
2023-05-21T11:57:55.170Z,27.70
2023-05-21T12:00:58.380Z,27.80
2023-05-21T12:04:05.142Z,27.80
2023-05-21T12:07:08.596Z,28.00
2023-05-21T12:10:13.172Z,28.10
2023-05-21T12:13:20.237Z,28.30
2023-05-21T12:16:24.056Z,28.40
2023-05-21T12:19:27.693Z,28.50
2023-05-21T12:22:34.363Z,28.40
2023-05-21T12:25:37.518Z,28.50
2023-05-21T12:28:42.128Z,28.30
2023-05-21T12:31:50.253Z,28.20
2023-05-21T12:34:55.155Z,28.00
2023-05-21T12:37:58.755Z,28.00
2023-05-21T12:41:05.332Z,28.00
2023-05-21T12:44:09.886Z,28.10
2023-05-21T12:47:13.883Z,28.30
2023-05-21T12:50:21.408Z,28.30
2023-05-21T12:53:24.417Z,28.30
2023-05-21T12:56:27.529Z,28.50
2023-05-21T12:59:44.960Z,28.40
2023-05-21T13:02:47.965Z,28.40
2023-05-21T13:05:59.771Z,28.30
2023-05-21T13:09:02.951Z,28.30
2023-05-21T13:12:06.421Z,28.40
2023-05-21T13:15:11.846Z,28.50
2023-05-21T13:18:15.802Z,28.10
2023-05-21T13:21:19.053Z,28.10
2023-05-21T13:24:22.026Z,28.00
2023-05-21T13:27:25.052Z,27.90
2023-05-21T13:30:29.607Z,27.80
2023-05-21T13:33:33.236Z,27.50
2023-05-21T13:36:37.534Z,27.40
2023-05-21T13:39:40.767Z,27.30
2023-05-21T13:42:44.090Z,27.20
2023-05-21T13:45:49.848Z,27.40
2023-05-21T13:48:53.081Z,27.50
2023-05-21T13:51:58.011Z,27.60
2023-05-21T13:55:01.100Z,27.70
2023-05-21T13:58:04.722Z,28.00
2023-05-21T14:01:09.531Z,28.10
2023-05-21T14:04:12.978Z,28.10
2023-05-21T14:07:16.844Z,28.20
2023-05-21T14:10:20.379Z,28.10
2023-05-21T14:13:23.416Z,28.20
2023-05-21T14:16:28.381Z,28.30
2023-05-21T14:19:31.626Z,28.30
2023-05-21T14:22:34.795Z,28.30
2023-05-21T14:25:38.044Z,28.50
2023-05-21T14:28:41.489Z,28.40
2023-05-21T14:31:46.573Z,28.30
2023-05-21T14:34:49.599Z,28.20
2023-05-21T14:37:54.050Z,28.20
2023-05-21T14:40:57.155Z,28.00
2023-05-21T14:44:00.240Z,28.00
2023-05-21T14:47:04.979Z,28.00
2023-05-21T14:50:09.231Z,28.00
2023-05-21T14:53:13.138Z,28.00
2023-05-21T14:56:16.326Z,28.10
2023-05-21T14:59:19.435Z,28.20
2023-05-21T15:02:26.015Z,28.30
2023-05-21T15:05:29.884Z,28.10
2023-05-21T15:08:33.234Z,28.10
2023-05-21T15:11:36.316Z,28.20
2023-05-21T15:14:39.443Z,28.30
2023-05-21T15:17:43.998Z,28.40
2023-05-21T15:20:47.367Z,28.30
2023-05-21T15:23:50.473Z,28.10
2023-05-21T15:26:53.543Z,27.90
2023-05-21T15:29:57.021Z,27.80
2023-05-21T15:33:01.595Z,27.70
2023-05-21T15:36:04.884Z,27.70
2023-05-21T15:39:07.950Z,27.70
2023-05-21T15:42:12.385Z,27.50
2023-05-21T15:45:15.427Z,27.40
2023-05-21T15:48:22.763Z,27.30
2023-05-21T15:51:26.009Z,27.30
2023-05-21T15:54:29.173Z,27.20
2023-05-21T15:58:05.819Z,27.10
2023-05-21T16:01:07.054Z,27.10
2023-05-21T16:04:11.741Z,27.00
2023-05-21T16:07:15.128Z,26.90
2023-05-21T16:10:18.669Z,26.80
2023-05-21T16:13:21.820Z,26.80
2023-05-21T16:16:25.160Z,26.80
2023-05-21T16:19:29.766Z,26.80
2023-05-21T16:22:32.853Z,26.90
2023-05-21T16:25:36.545Z,26.90
2023-05-21T16:28:40.164Z,26.80
2023-05-21T16:31:43.497Z,26.70
2023-05-21T16:34:48.069Z,26.70
2023-05-21T16:37:51.111Z,26.60
2023-05-21T16:40:54.306Z,26.50
2023-05-21T16:43:57.352Z,26.40
2023-05-21T16:47:01.944Z,26.40
2023-05-21T16:50:07.702Z,26.40
2023-05-21T16:53:11.458Z,26.40
2023-05-21T16:56:14.459Z,26.30
2023-05-21T16:59:17.665Z,26.20
2023-05-21T17:02:20.914Z,26.10
2023-05-21T17:05:26.477Z,26.10
2023-05-21T17:08:29.515Z,26.10
2023-05-21T17:11:32.648Z,26.10
2023-05-21T17:14:36.738Z,26.00
2023-05-21T17:17:41.385Z,25.90
2023-05-21T17:20:46.036Z,25.80
2023-05-21T17:23:49.111Z,25.60
2023-05-21T17:26:53.653Z,25.60
2023-05-21T17:29:57.206Z,25.50
2023-05-21T17:33:01.982Z,25.50
2023-05-21T17:39:27.550Z,25.30
2023-05-21T17:42:30.626Z,25.20
2023-05-21T17:45:33.953Z,25.10
2023-05-21T17:48:37.071Z,25.00
2023-05-21T17:51:41.648Z,25.00
2023-05-21T17:54:44.776Z,24.90
2023-05-21T17:57:48.036Z,24.80
2023-05-21T18:00:51.293Z,24.70
2023-05-21T18:03:54.864Z,24.60
2023-05-21T18:06:59.539Z,24.50
2023-05-21T18:10:02.660Z,24.50
2023-05-21T18:13:05.979Z,24.40
2023-05-21T18:16:10.059Z,24.30
2023-05-21T18:19:13.311Z,24.20
2023-05-21T18:22:17.774Z,24.10
2023-05-21T18:25:20.950Z,24.00
2023-05-21T18:28:24.046Z,24.00
2023-05-21T18:31:27.176Z,23.90
2023-05-21T18:34:30.282Z,23.80
2023-05-21T18:37:34.753Z,23.70
2023-05-21T18:40:38.130Z,23.60
2023-05-21T18:43:42.221Z,23.50
2023-05-21T18:46:45.558Z,23.40
2023-05-21T18:49:48.947Z,23.40
2023-05-21T18:52:55.387Z,23.20
2023-05-21T18:55:58.383Z,23.10
2023-05-21T18:59:01.322Z,23.00
2023-05-21T19:02:05.847Z,22.90
2023-05-21T19:05:09.905Z,22.90
2023-05-21T19:08:14.413Z,22.80
2023-05-21T19:11:18.741Z,22.70
2023-05-21T19:14:21.859Z,22.60
2023-05-21T19:17:25.345Z,22.50
2023-05-21T19:20:28.621Z,22.50
2023-05-21T19:23:44.600Z,22.40
2023-05-21T19:26:51.748Z,22.30
2023-05-21T19:29:58.557Z,22.20
2023-05-21T19:33:01.866Z,22.20
2023-05-21T19:36:05.182Z,22.20
2023-05-21T19:39:09.899Z,22.10
2023-05-21T19:42:12.993Z,22.00
2023-05-21T19:45:16.162Z,22.00
2023-05-21T19:48:19.401Z,22.00
2023-05-21T19:51:22.589Z,21.90
2023-05-21T19:54:27.707Z,21.90
2023-05-21T19:57:31.032Z,21.90
2023-05-21T20:00:34.095Z,21.80
2023-05-21T20:03:37.180Z,21.70
2023-05-21T20:06:40.749Z,21.70
2023-05-21T20:09:45.348Z,21.70
2023-05-21T20:12:48.354Z,21.70
2023-05-21T20:15:51.747Z,21.70
2023-05-21T20:18:56.822Z,21.60
2023-05-21T20:22:00.285Z,21.50
2023-05-21T20:25:06.007Z,21.50
2023-05-21T20:28:09.800Z,21.50
2023-05-21T20:31:13.003Z,21.50
2023-05-21T20:34:17.565Z,21.40
2023-05-21T20:37:21.663Z,21.40
2023-05-21T20:40:26.155Z,21.40
2023-05-21T20:43:29.335Z,21.40
2023-05-21T20:46:32.710Z,21.30
2023-05-21T20:49:36.457Z,21.30
2023-05-21T20:52:40.605Z,21.30
2023-05-21T20:55:46.558Z,21.30
2023-05-21T20:58:50.586Z,21.20
2023-05-21T21:01:53.679Z,21.30
2023-05-21T21:04:57.861Z,21.20
2023-05-21T21:08:02.514Z,21.20
2023-05-21T21:11:07.079Z,21.10
2023-05-21T21:14:10.161Z,21.10
2023-05-21T21:17:13.228Z,21.10
2023-05-21T21:20:17.764Z,21.10
2023-05-21T21:23:20.801Z,21.10
2023-05-21T21:26:27.103Z,21.00
2023-05-21T21:29:30.100Z,21.00
2023-05-21T21:32:33.273Z,21.00
2023-05-21T21:35:36.448Z,20.90
2023-05-21T21:38:39.612Z,20.90
2023-05-21T21:41:44.133Z,20.90
2023-05-21T21:44:50.383Z,20.80
2023-05-21T21:47:53.504Z,20.70
2023-05-21T21:50:56.959Z,20.70
2023-05-21T21:54:00.060Z,20.60
2023-05-21T21:57:04.856Z,20.60
2023-05-21T22:00:13.293Z,20.60
2023-05-21T22:03:16.587Z,20.50
2023-05-21T22:06:19.743Z,20.50
2023-05-21T22:09:23.180Z,20.60
2023-05-21T22:12:28.930Z,20.50
2023-05-21T22:15:32.758Z,20.50
2023-05-21T22:18:40.350Z,20.50
2023-05-21T22:21:44.436Z,20.50
2023-05-21T22:24:47.482Z,20.50
2023-05-21T22:27:52.305Z,20.50
2023-05-21T22:30:55.389Z,20.40
2023-05-21T22:33:58.503Z,20.40
2023-05-21T22:37:02.654Z,20.30
2023-05-21T22:40:07.570Z,20.30
2023-05-21T22:43:12.385Z,20.30
2023-05-21T22:46:15.971Z,20.30
2023-05-21T22:49:19.821Z,20.30
2023-05-21T22:52:23.026Z,20.30
2023-05-21T22:55:26.091Z,20.30
2023-05-21T22:58:30.653Z,20.30
2023-05-21T23:01:33.800Z,20.20
2023-05-21T23:04:43.821Z,20.20
2023-05-21T23:07:47.483Z,20.10
2023-05-21T23:10:50.678Z,20.10
2023-05-21T23:13:55.075Z,20.10
2023-05-21T23:17:02.163Z,20.10
2023-05-21T23:20:07.582Z,20.10
2023-05-21T23:23:10.966Z,20.00
2023-05-21T23:26:13.989Z,20.00
2023-05-21T23:29:18.993Z,19.90
2023-05-21T23:32:23.240Z,19.90
2023-05-21T23:35:26.419Z,19.80
2023-05-21T23:38:29.546Z,19.80
2023-05-21T23:41:32.656Z,19.70
2023-05-21T23:44:37.093Z,19.70
2023-05-21T23:47:40.211Z,19.70
2023-05-21T23:50:43.344Z,19.70
2023-05-21T23:53:46.474Z,19.50
2023-05-21T23:56:49.632Z,19.50
2023-05-21T23:59:54.078Z,19.50
